sensor_id;sensor_type;location;lat;lon;timestamp;temperature;humidity
53274;DHT22;39163;52.696;6.758;2022-07-23T00:02:18;15.40;99.90
53274;DHT22;39163;52.696;6.758;2022-07-23T00:04:44;15.40;99.90
53274;DHT22;39163;52.696;6.758;2022-07-23T00:07:10;15.30;99.90
53274;DHT22;39163;52.696;6.758;2022-07-23T00:09:35;15.30;99.90
53274;DHT22;39163;52.696;6.758;2022-07-23T00:12:01;15.20;99.90
53274;DHT22;39163;52.696;6.758;2022-07-23T00:14:28;15.20;99.90
53274;DHT22;39163;52.696;6.758;2022-07-23T00:16:54;15.20;99.90
53274;DHT22;39163;52.696;6.758;2022-07-23T00:19:20;15.10;99.90
53274;DHT22;39163;52.696;6.758;2022-07-23T00:21:45;15.10;99.90
53274;DHT22;39163;52.696;6.758;2022-07-23T00:24:11;15.10;99.90
53274;DHT22;39163;52.696;6.758;2022-07-23T00:26:37;15.00;99.90
53274;DHT22;39163;52.696;6.758;2022-07-23T00:29:03;15.00;99.90
53274;DHT22;39163;52.696;6.758;2022-07-23T00:31:28;14.90;99.90
53274;DHT22;39163;52.696;6.758;2022-07-23T00:33:54;14.80;99.90
53274;DHT22;39163;52.696;6.758;2022-07-23T00:36:23;14.80;99.90
53274;DHT22;39163;52.696;6.758;2022-07-23T00:38:50;14.70;99.90
53274;DHT22;39163;52.696;6.758;2022-07-23T00:41:15;14.60;99.90
53274;DHT22;39163;52.696;6.758;2022-07-23T00:43:41;14.60;99.90
53274;DHT22;39163;52.696;6.758;2022-07-23T00:46:07;14.50;99.90
53274;DHT22;39163;52.696;6.758;2022-07-23T00:48:33;14.50;99.90
53274;DHT22;39163;52.696;6.758;2022-07-23T00:50:59;14.50;99.90
53274;DHT22;39163;52.696;6.758;2022-07-23T00:53:25;14.50;99.90
53274;DHT22;39163;52.696;6.758;2022-07-23T00:55:59;14.50;99.90
53274;DHT22;39163;52.696;6.758;2022-07-23T00:58:25;14.50;99.90
53274;DHT22;39163;52.696;6.758;2022-07-23T01:00:51;14.60;99.90
53274;DHT22;39163;52.696;6.758;2022-07-23T01:03:17;14.60;99.90
53274;DHT22;39163;52.696;6.758;2022-07-23T01:05:42;14.60;99.90
53274;DHT22;39163;52.696;6.758;2022-07-23T01:08:09;14.70;99.90
53274;DHT22;39163;52.696;6.758;2022-07-23T01:10:34;14.70;99.90
53274;DHT22;39163;52.696;6.758;2022-07-23T01:13:06;14.80;99.90
53274;DHT22;39163;52.696;6.758;2022-07-23T01:15:34;14.80;99.90
53274;DHT22;39163;52.696;6.758;2022-07-23T01:18:00;14.80;99.90
53274;DHT22;39163;52.696;6.758;2022-07-23T01:20:27;14.80;99.90
53274;DHT22;39163;52.696;6.758;2022-07-23T01:22:53;14.80;99.90
53274;DHT22;39163;52.696;6.758;2022-07-23T01:25:20;14.80;99.90
53274;DHT22;39163;52.696;6.758;2022-07-23T01:27:47;14.80;99.90
53274;DHT22;39163;52.696;6.758;2022-07-23T01:30:13;14.80;99.90
53274;DHT22;39163;52.696;6.758;2022-07-23T01:32:39;14.80;99.90
53274;DHT22;39163;52.696;6.758;2022-07-23T01:35:06;14.80;99.90
53274;DHT22;39163;52.696;6.758;2022-07-23T01:37:31;14.80;99.90
53274;DHT22;39163;52.696;6.758;2022-07-23T01:39:57;14.70;99.90
53274;DHT22;39163;52.696;6.758;2022-07-23T01:42:23;14.70;99.90
53274;DHT22;39163;52.696;6.758;2022-07-23T01:44:49;14.70;99.90
53274;DHT22;39163;52.696;6.758;2022-07-23T01:47:16;14.70;99.90
53274;DHT22;39163;52.696;6.758;2022-07-23T01:49:44;14.60;99.90
53274;DHT22;39163;52.696;6.758;2022-07-23T01:52:13;14.60;99.90
53274;DHT22;39163;52.696;6.758;2022-07-23T01:54:39;14.60;99.90
53274;DHT22;39163;52.696;6.758;2022-07-23T01:57:08;14.60;99.90
53274;DHT22;39163;52.696;6.758;2022-07-23T01:59:34;14.60;99.90
53274;DHT22;39163;52.696;6.758;2022-07-23T02:02:03;14.60;99.90
53274;DHT22;39163;52.696;6.758;2022-07-23T02:04:29;14.50;99.90
53274;DHT22;39163;52.696;6.758;2022-07-23T02:06:55;14.50;99.90
53274;DHT22;39163;52.696;6.758;2022-07-23T02:09:21;14.50;99.90
53274;DHT22;39163;52.696;6.758;2022-07-23T02:11:48;14.40;99.90
53274;DHT22;39163;52.696;6.758;2022-07-23T02:14:13;14.40;99.90
53274;DHT22;39163;52.696;6.758;2022-07-23T02:16:39;14.40;99.90
53274;DHT22;39163;52.696;6.758;2022-07-23T02:19:05;14.30;99.90
53274;DHT22;39163;52.696;6.758;2022-07-23T02:21:34;14.30;99.90
53274;DHT22;39163;52.696;6.758;2022-07-23T02:24:00;14.20;99.90
53274;DHT22;39163;52.696;6.758;2022-07-23T02:26:28;14.20;99.90
53274;DHT22;39163;52.696;6.758;2022-07-23T02:29:05;14.20;99.90
53274;DHT22;39163;52.696;6.758;2022-07-23T02:31:37;14.10;99.90
53274;DHT22;39163;52.696;6.758;2022-07-23T02:34:05;14.10;99.90
53274;DHT22;39163;52.696;6.758;2022-07-23T02:36:35;14.00;99.90
53274;DHT22;39163;52.696;6.758;2022-07-23T02:39:03;14.00;99.90
53274;DHT22;39163;52.696;6.758;2022-07-23T02:41:29;14.00;99.90
53274;DHT22;39163;52.696;6.758;2022-07-23T02:43:55;13.90;99.90
53274;DHT22;39163;52.696;6.758;2022-07-23T02:46:21;13.90;99.90
53274;DHT22;39163;52.696;6.758;2022-07-23T02:48:47;13.90;99.90
53274;DHT22;39163;52.696;6.758;2022-07-23T02:51:13;13.80;99.90
53274;DHT22;39163;52.696;6.758;2022-07-23T02:53:38;13.70;99.90
53274;DHT22;39163;52.696;6.758;2022-07-23T02:56:04;13.70;99.90
53274;DHT22;39163;52.696;6.758;2022-07-23T02:58:30;13.60;99.90
53274;DHT22;39163;52.696;6.758;2022-07-23T03:00:56;13.60;99.90
53274;DHT22;39163;52.696;6.758;2022-07-23T03:03:21;13.50;99.90
53274;DHT22;39163;52.696;6.758;2022-07-23T03:05:47;13.50;99.90
53274;DHT22;39163;52.696;6.758;2022-07-23T03:08:13;13.50;99.90
53274;DHT22;39163;52.696;6.758;2022-07-23T03:10:39;13.40;99.90
53274;DHT22;39163;52.696;6.758;2022-07-23T03:13:05;13.40;99.90
53274;DHT22;39163;52.696;6.758;2022-07-23T03:15:33;13.40;99.90
53274;DHT22;39163;52.696;6.758;2022-07-23T03:17:59;13.30;99.90
53274;DHT22;39163;52.696;6.758;2022-07-23T03:20:25;13.30;99.90
53274;DHT22;39163;52.696;6.758;2022-07-23T03:22:50;13.20;99.90
53274;DHT22;39163;52.696;6.758;2022-07-23T03:25:16;13.20;99.90
53274;DHT22;39163;52.696;6.758;2022-07-23T03:27:42;13.10;99.90
53274;DHT22;39163;52.696;6.758;2022-07-23T03:30:08;13.10;99.90
53274;DHT22;39163;52.696;6.758;2022-07-23T03:32:34;13.10;99.90
53274;DHT22;39163;52.696;6.758;2022-07-23T03:34:59;13.10;99.90
53274;DHT22;39163;52.696;6.758;2022-07-23T03:37:25;13.10;99.90
53274;DHT22;39163;52.696;6.758;2022-07-23T03:39:51;13.00;99.90
53274;DHT22;39163;52.696;6.758;2022-07-23T03:42:25;13.00;99.90
53274;DHT22;39163;52.696;6.758;2022-07-23T03:44:51;13.00;99.90
53274;DHT22;39163;52.696;6.758;2022-07-23T03:47:17;13.00;99.90
53274;DHT22;39163;52.696;6.758;2022-07-23T03:49:53;13.00;99.90
53274;DHT22;39163;52.696;6.758;2022-07-23T03:52:19;13.00;99.90
53274;DHT22;39163;52.696;6.758;2022-07-23T03:54:47;13.00;99.90
53274;DHT22;39163;52.696;6.758;2022-07-23T03:57:13;12.90;99.90
53274;DHT22;39163;52.696;6.758;2022-07-23T03:59:39;12.90;99.90
53274;DHT22;39163;52.696;6.758;2022-07-23T04:02:04;12.90;99.90
53274;DHT22;39163;52.696;6.758;2022-07-23T04:04:30;12.90;99.90
53274;DHT22;39163;52.696;6.758;2022-07-23T04:06:56;12.90;99.90
53274;DHT22;39163;52.696;6.758;2022-07-23T04:09:21;12.90;99.90
53274;DHT22;39163;52.696;6.758;2022-07-23T04:11:47;12.90;99.90
53274;DHT22;39163;52.696;6.758;2022-07-23T04:14:13;12.80;99.90
53274;DHT22;39163;52.696;6.758;2022-07-23T04:16:39;12.80;99.90
53274;DHT22;39163;52.696;6.758;2022-07-23T04:19:05;12.80;99.90
53274;DHT22;39163;52.696;6.758;2022-07-23T04:21:30;12.70;99.90
53274;DHT22;39163;52.696;6.758;2022-07-23T04:23:56;12.70;99.90
53274;DHT22;39163;52.696;6.758;2022-07-23T04:26:22;12.70;99.90
53274;DHT22;39163;52.696;6.758;2022-07-23T04:28:47;12.70;99.90
53274;DHT22;39163;52.696;6.758;2022-07-23T04:31:13;12.80;99.90
53274;DHT22;39163;52.696;6.758;2022-07-23T04:33:39;12.90;99.90
53274;DHT22;39163;52.696;6.758;2022-07-23T04:36:05;12.90;99.90
53274;DHT22;39163;52.696;6.758;2022-07-23T04:38:33;12.90;99.90
53274;DHT22;39163;52.696;6.758;2022-07-23T04:41:00;13.00;99.90
53274;DHT22;39163;52.696;6.758;2022-07-23T04:43:26;13.00;99.90
53274;DHT22;39163;52.696;6.758;2022-07-23T04:45:52;13.00;99.90
53274;DHT22;39163;52.696;6.758;2022-07-23T04:48:18;13.00;99.90
53274;DHT22;39163;52.696;6.758;2022-07-23T04:50:44;13.10;99.90
53274;DHT22;39163;52.696;6.758;2022-07-23T04:53:09;13.10;99.90
53274;DHT22;39163;52.696;6.758;2022-07-23T04:55:35;13.10;99.90
53274;DHT22;39163;52.696;6.758;2022-07-23T04:58:01;13.20;99.90
53274;DHT22;39163;52.696;6.758;2022-07-23T05:00:27;13.20;99.90
53274;DHT22;39163;52.696;6.758;2022-07-23T05:02:52;13.20;99.90
53274;DHT22;39163;52.696;6.758;2022-07-23T05:05:21;13.30;99.90
53274;DHT22;39163;52.696;6.758;2022-07-23T05:07:55;13.30;99.90
53274;DHT22;39163;52.696;6.758;2022-07-23T05:10:20;13.30;99.90
53274;DHT22;39163;52.696;6.758;2022-07-23T05:12:56;13.40;99.90
53274;DHT22;39163;52.696;6.758;2022-07-23T17:54:10;25.30;79.70
53274;DHT22;39163;52.696;6.758;2022-07-23T17:56:36;25.10;81.10
53274;DHT22;39163;52.696;6.758;2022-07-23T17:59:02;25.00;81.80
53274;DHT22;39163;52.696;6.758;2022-07-23T18:01:27;24.80;82.20
53274;DHT22;39163;52.696;6.758;2022-07-23T18:03:54;24.70;83.20
53274;DHT22;39163;52.696;6.758;2022-07-23T18:06:20;24.60;83.80
53274;DHT22;39163;52.696;6.758;2022-07-23T18:08:46;24.50;83.80
53274;DHT22;39163;52.696;6.758;2022-07-23T18:11:12;24.40;86.00
53274;DHT22;39163;52.696;6.758;2022-07-23T18:13:41;24.30;86.10
53274;DHT22;39163;52.696;6.758;2022-07-23T18:16:06;24.30;86.80
53274;DHT22;39163;52.696;6.758;2022-07-23T18:18:32;24.20;87.10
53274;DHT22;39163;52.696;6.758;2022-07-23T18:21:01;24.00;87.30
53274;DHT22;39163;52.696;6.758;2022-07-23T18:23:27;23.80;89.30
53274;DHT22;39163;52.696;6.758;2022-07-23T18:25:53;23.80;90.50
53274;DHT22;39163;52.696;6.758;2022-07-23T18:28:20;23.70;91.80
53274;DHT22;39163;52.696;6.758;2022-07-23T18:30:46;23.70;92.90
53274;DHT22;39163;52.696;6.758;2022-07-23T18:33:13;23.60;94.00
53274;DHT22;39163;52.696;6.758;2022-07-23T18:35:40;23.50;95.60
53274;DHT22;39163;52.696;6.758;2022-07-23T18:38:06;23.50;96.80
53274;DHT22;39163;52.696;6.758;2022-07-23T18:40:32;23.40;97.80
53274;DHT22;39163;52.696;6.758;2022-07-23T18:42:58;23.30;98.50
53274;DHT22;39163;52.696;6.758;2022-07-23T18:45:25;23.30;99.60
53274;DHT22;39163;52.696;6.758;2022-07-23T18:47:52;23.20;99.90
53274;DHT22;39163;52.696;6.758;2022-07-23T18:50:19;23.10;99.90
53274;DHT22;39163;52.696;6.758;2022-07-23T18:52:45;23.00;99.90
53274;DHT22;39163;52.696;6.758;2022-07-23T18:55:12;22.90;99.90
53274;DHT22;39163;52.696;6.758;2022-07-23T18:57:37;22.80;99.90
53274;DHT22;39163;52.696;6.758;2022-07-23T19:00:05;22.70;99.90
53274;DHT22;39163;52.696;6.758;2022-07-23T19:02:34;22.60;99.90
53274;DHT22;39163;52.696;6.758;2022-07-23T19:05:00;22.60;99.90
53274;DHT22;39163;52.696;6.758;2022-07-23T19:07:25;22.40;99.90
53274;DHT22;39163;52.696;6.758;2022-07-23T19:09:51;22.40;99.90
53274;DHT22;39163;52.696;6.758;2022-07-23T19:12:17;22.20;99.90
53274;DHT22;39163;52.696;6.758;2022-07-23T19:14:43;22.20;99.90
53274;DHT22;39163;52.696;6.758;2022-07-23T19:17:09;22.10;99.90
53274;DHT22;39163;52.696;6.758;2022-07-23T19:19:34;22.00;99.90
53274;DHT22;39163;52.696;6.758;2022-07-23T19:22:00;21.90;99.90
53274;DHT22;39163;52.696;6.758;2022-07-23T19:24:27;21.80;99.90
53274;DHT22;39163;52.696;6.758;2022-07-23T19:26:52;21.70;99.90
53274;DHT22;39163;52.696;6.758;2022-07-23T19:29:18;21.50;99.90
53274;DHT22;39163;52.696;6.758;2022-07-23T19:31:44;21.40;99.90
53274;DHT22;39163;52.696;6.758;2022-07-23T19:34:10;21.30;99.90
53274;DHT22;39163;52.696;6.758;2022-07-23T19:36:35;21.30;99.90
53274;DHT22;39163;52.696;6.758;2022-07-23T19:39:01;21.20;99.90
53274;DHT22;39163;52.696;6.758;2022-07-23T19:41:27;21.20;99.90
53274;DHT22;39163;52.696;6.758;2022-07-23T19:43:53;21.10;99.90
53274;DHT22;39163;52.696;6.758;2022-07-23T19:46:18;21.00;99.90
53274;DHT22;39163;52.696;6.758;2022-07-23T19:48:44;20.90;99.90
53274;DHT22;39163;52.696;6.758;2022-07-23T19:51:10;20.70;99.90
53274;DHT22;39163;52.696;6.758;2022-07-23T19:53:36;20.60;99.90
53274;DHT22;39163;52.696;6.758;2022-07-23T19:56:02;20.60;99.90
53274;DHT22;39163;52.696;6.758;2022-07-23T19:58:27;20.50;99.90
53274;DHT22;39163;52.696;6.758;2022-07-23T20:00:53;20.40;99.90
53274;DHT22;39163;52.696;6.758;2022-07-23T20:03:19;20.30;99.90
53274;DHT22;39163;52.696;6.758;2022-07-23T20:05:45;20.30;99.90
53274;DHT22;39163;52.696;6.758;2022-07-23T20:08:11;20.20;99.90
53274;DHT22;39163;52.696;6.758;2022-07-23T20:10:37;20.20;99.90
53274;DHT22;39163;52.696;6.758;2022-07-23T20:13:02;20.10;99.90
53274;DHT22;39163;52.696;6.758;2022-07-23T20:15:28;20.00;99.90
53274;DHT22;39163;52.696;6.758;2022-07-23T20:17:55;19.90;99.90
53274;DHT22;39163;52.696;6.758;2022-07-23T20:20:21;19.80;99.90
53274;DHT22;39163;52.696;6.758;2022-07-23T20:22:46;19.80;99.90
53274;DHT22;39163;52.696;6.758;2022-07-23T20:25:12;19.70;99.90
53274;DHT22;39163;52.696;6.758;2022-07-23T20:27:38;19.70;99.90
53274;DHT22;39163;52.696;6.758;2022-07-23T20:30:06;19.50;99.90
53274;DHT22;39163;52.696;6.758;2022-07-23T20:32:32;19.50;99.90
53274;DHT22;39163;52.696;6.758;2022-07-23T20:34:57;19.40;99.90
53274;DHT22;39163;52.696;6.758;2022-07-23T20:37:23;19.40;99.90
53274;DHT22;39163;52.696;6.758;2022-07-23T20:39:49;19.30;99.90
53274;DHT22;39163;52.696;6.758;2022-07-23T20:42:14;19.20;99.90
53274;DHT22;39163;52.696;6.758;2022-07-23T20:44:40;19.10;99.90
53274;DHT22;39163;52.696;6.758;2022-07-23T20:47:06;19.00;99.90
53274;DHT22;39163;52.696;6.758;2022-07-23T20:49:31;19.00;99.90
53274;DHT22;39163;52.696;6.758;2022-07-23T20:51:57;18.90;99.90
53274;DHT22;39163;52.696;6.758;2022-07-23T20:54:26;18.90;99.90
53274;DHT22;39163;52.696;6.758;2022-07-23T20:56:52;18.80;99.90
53274;DHT22;39163;52.696;6.758;2022-07-23T20:59:18;18.80;99.90
53274;DHT22;39163;52.696;6.758;2022-07-23T21:01:43;18.80;99.90
53274;DHT22;39163;52.696;6.758;2022-07-23T21:04:09;18.80;99.90
53274;DHT22;39163;52.696;6.758;2022-07-23T21:06:35;18.70;99.90
53274;DHT22;39163;52.696;6.758;2022-07-23T21:09:01;18.60;99.90
53274;DHT22;39163;52.696;6.758;2022-07-23T21:11:27;18.60;99.90
53274;DHT22;39163;52.696;6.758;2022-07-23T21:13:52;18.50;99.90
53274;DHT22;39163;52.696;6.758;2022-07-23T21:16:18;18.40;99.90
53274;DHT22;39163;52.696;6.758;2022-07-23T21:18:44;18.40;99.90
53274;DHT22;39163;52.696;6.758;2022-07-23T21:21:09;18.30;99.90
53274;DHT22;39163;52.696;6.758;2022-07-23T21:23:40;18.30;99.90
53274;DHT22;39163;52.696;6.758;2022-07-23T21:26:07;18.30;99.90
53274;DHT22;39163;52.696;6.758;2022-07-23T21:28:33;18.30;99.90
53274;DHT22;39163;52.696;6.758;2022-07-23T21:30:58;18.20;99.90
53274;DHT22;39163;52.696;6.758;2022-07-23T21:33:24;18.10;99.90
53274;DHT22;39163;52.696;6.758;2022-07-23T21:35:50;18.00;99.90
53274;DHT22;39163;52.696;6.758;2022-07-23T21:38:15;18.00;99.90
53274;DHT22;39163;52.696;6.758;2022-07-23T21:40:41;17.80;99.90
53274;DHT22;39163;52.696;6.758;2022-07-23T21:43:07;17.70;99.90
53274;DHT22;39163;52.696;6.758;2022-07-23T21:45:33;17.70;99.90
53274;DHT22;39163;52.696;6.758;2022-07-23T21:47:58;17.60;99.90
53274;DHT22;39163;52.696;6.758;2022-07-23T21:50:24;17.50;99.90
53274;DHT22;39163;52.696;6.758;2022-07-23T21:52:50;17.40;99.90
53274;DHT22;39163;52.696;6.758;2022-07-23T21:55:16;17.40;99.90
53274;DHT22;39163;52.696;6.758;2022-07-23T21:57:42;17.30;99.90
53274;DHT22;39163;52.696;6.758;2022-07-23T22:00:15;17.30;99.90
53274;DHT22;39163;52.696;6.758;2022-07-23T22:02:42;17.30;99.90
53274;DHT22;39163;52.696;6.758;2022-07-23T22:05:08;17.20;99.90
53274;DHT22;39163;52.696;6.758;2022-07-23T22:07:34;17.20;99.90
53274;DHT22;39163;52.696;6.758;2022-07-23T22:10:00;17.10;99.90
53274;DHT22;39163;52.696;6.758;2022-07-23T22:12:26;17.00;99.90
53274;DHT22;39163;52.696;6.758;2022-07-23T22:14:52;16.90;99.90
53274;DHT22;39163;52.696;6.758;2022-07-23T22:17:17;16.90;99.90
53274;DHT22;39163;52.696;6.758;2022-07-23T22:19:43;16.90;99.90
53274;DHT22;39163;52.696;6.758;2022-07-23T22:22:09;16.90;99.90
53274;DHT22;39163;52.696;6.758;2022-07-23T22:24:34;16.80;99.90
53274;DHT22;39163;52.696;6.758;2022-07-23T22:27:00;16.80;99.90
53274;DHT22;39163;52.696;6.758;2022-07-23T22:29:26;16.80;99.90
53274;DHT22;39163;52.696;6.758;2022-07-23T22:31:51;16.90;99.90
53274;DHT22;39163;52.696;6.758;2022-07-23T22:34:17;16.90;99.90
53274;DHT22;39163;52.696;6.758;2022-07-23T22:36:43;16.90;99.90
53274;DHT22;39163;52.696;6.758;2022-07-23T22:39:09;17.00;99.90
53274;DHT22;39163;52.696;6.758;2022-07-23T22:41:35;16.90;99.90
53274;DHT22;39163;52.696;6.758;2022-07-23T22:44:01;16.90;99.90
53274;DHT22;39163;52.696;6.758;2022-07-23T22:46:27;16.80;99.90
53274;DHT22;39163;52.696;6.758;2022-07-23T22:48:52;16.80;99.90
53274;DHT22;39163;52.696;6.758;2022-07-23T22:51:18;16.80;99.90
53274;DHT22;39163;52.696;6.758;2022-07-23T22:53:43;16.80;99.90
53274;DHT22;39163;52.696;6.758;2022-07-23T22:56:10;16.70;99.90
53274;DHT22;39163;52.696;6.758;2022-07-23T22:58:35;16.70;99.90
53274;DHT22;39163;52.696;6.758;2022-07-23T23:01:01;16.70;99.90
53274;DHT22;39163;52.696;6.758;2022-07-23T23:03:27;16.70;99.90
53274;DHT22;39163;52.696;6.758;2022-07-23T23:05:53;16.70;99.90
53274;DHT22;39163;52.696;6.758;2022-07-23T23:08:18;16.70;99.90
53274;DHT22;39163;52.696;6.758;2022-07-23T23:10:44;16.70;99.90
53274;DHT22;39163;52.696;6.758;2022-07-23T23:13:10;16.70;99.90
53274;DHT22;39163;52.696;6.758;2022-07-23T23:15:35;16.70;99.90
53274;DHT22;39163;52.696;6.758;2022-07-23T23:18:01;16.60;99.90
53274;DHT22;39163;52.696;6.758;2022-07-23T23:20:27;16.50;99.90
53274;DHT22;39163;52.696;6.758;2022-07-23T23:22:52;16.50;99.90
53274;DHT22;39163;52.696;6.758;2022-07-23T23:25:18;16.50;99.90
53274;DHT22;39163;52.696;6.758;2022-07-23T23:27:44;16.50;99.90
53274;DHT22;39163;52.696;6.758;2022-07-23T23:30:10;16.50;99.90
53274;DHT22;39163;52.696;6.758;2022-07-23T23:32:36;16.40;99.90
53274;DHT22;39163;52.696;6.758;2022-07-23T23:35:02;16.40;99.90
53274;DHT22;39163;52.696;6.758;2022-07-23T23:37:28;16.40;99.90
53274;DHT22;39163;52.696;6.758;2022-07-23T23:39:53;16.40;99.90
53274;DHT22;39163;52.696;6.758;2022-07-23T23:42:19;16.40;99.90
53274;DHT22;39163;52.696;6.758;2022-07-23T23:44:45;16.30;99.90
53274;DHT22;39163;52.696;6.758;2022-07-23T23:47:11;16.30;99.90
53274;DHT22;39163;52.696;6.758;2022-07-23T23:49:40;16.30;99.90
53274;DHT22;39163;52.696;6.758;2022-07-23T23:52:06;16.30;99.90
53274;DHT22;39163;52.696;6.758;2022-07-23T23:54:34;16.30;99.90
53274;DHT22;39163;52.696;6.758;2022-07-23T23:57:00;16.20;99.90
53274;DHT22;39163;52.696;6.758;2022-07-23T23:59:26;16.20;99.90
